createdAt,value
2018-05-25T00:00:01.263Z,92.82
2018-05-25T00:02:28.806Z,92.92
2018-05-25T00:04:56.298Z,93.08
2018-05-25T00:07:23.821Z,93.43
2018-05-25T00:09:51.391Z,93.35
2018-05-25T00:12:18.898Z,93.37
2018-05-25T00:14:46.437Z,93.40
2018-05-25T00:17:13.943Z,93.25
2018-05-25T00:19:41.460Z,92.99
2018-05-25T00:22:08.982Z,92.92
2018-05-25T00:24:36.496Z,92.83
2018-05-25T00:27:04.048Z,93.01
2018-05-25T00:29:31.579Z,93.11
2018-05-25T00:31:59.094Z,92.78
2018-05-25T00:34:26.632Z,92.84
2018-05-25T00:36:54.171Z,92.73
2018-05-25T00:39:21.697Z,92.73
2018-05-25T00:41:49.235Z,92.77
2018-05-25T00:44:16.733Z,92.71
2018-05-25T00:46:44.254Z,92.80
2018-05-25T00:49:11.813Z,92.93
2018-05-25T00:51:39.377Z,93.01
2018-05-25T00:54:06.920Z,93.07
2018-05-25T00:56:34.449Z,93.16
2018-05-25T00:59:01.992Z,93.23
2018-05-25T01:01:29.513Z,93.25
2018-05-25T01:03:57.070Z,93.51
2018-05-25T01:06:24.611Z,93.42
2018-05-25T01:08:52.127Z,93.60
2018-05-25T01:11:19.677Z,93.61
2018-05-25T01:13:47.183Z,93.64
2018-05-25T01:16:14.767Z,93.68
2018-05-25T01:18:42.299Z,93.83
2018-05-25T01:21:09.897Z,93.84
2018-05-25T01:23:37.451Z,93.77
2018-05-25T01:26:04.963Z,93.73
2018-05-25T01:28:32.550Z,93.81
2018-05-25T01:31:00.083Z,93.85
2018-05-25T01:33:27.615Z,93.56
2018-05-25T01:35:55.140Z,93.14
2018-05-25T01:38:22.672Z,92.96
2018-05-25T01:40:50.231Z,93.15
2018-05-25T01:43:18.693Z,93.24
2018-05-25T01:45:46.206Z,93.27
2018-05-25T01:48:13.731Z,93.01
2018-05-25T01:50:41.252Z,92.86
2018-05-25T01:53:08.787Z,92.94
2018-05-25T01:55:36.296Z,93.15
2018-05-25T01:58:03.843Z,93.19
2018-05-25T02:00:31.395Z,93.21
2018-05-25T02:02:58.949Z,93.44
2018-05-25T02:05:26.487Z,93.31
2018-05-25T02:07:54.010Z,93.41
2018-05-25T02:10:21.519Z,93.38
2018-05-25T02:12:49.079Z,93.33
2018-05-25T02:15:16.588Z,93.38
2018-05-25T02:17:44.106Z,93.42
2018-05-25T02:20:11.622Z,93.32
2018-05-25T02:22:39.170Z,93.35
2018-05-25T02:25:06.696Z,93.57
2018-05-25T02:27:34.211Z,93.57
2018-05-25T02:30:01.747Z,93.63
2018-05-25T02:32:29.266Z,93.80
2018-05-25T02:34:57.172Z,93.87
2018-05-25T02:37:24.706Z,93.93
2018-05-25T02:39:52.218Z,94.08
2018-05-25T02:42:19.741Z,94.13
2018-05-25T02:44:47.241Z,93.99
2018-05-25T02:47:14.765Z,93.78
2018-05-25T02:49:42.325Z,93.65
2018-05-25T02:52:09.825Z,93.48
2018-05-25T02:54:37.365Z,93.40
2018-05-25T02:57:04.863Z,93.66
2018-05-25T02:59:32.369Z,93.74
2018-05-25T03:01:59.890Z,93.77
2018-05-25T03:04:27.426Z,93.86
2018-05-25T03:06:54.959Z,94.05
2018-05-25T03:09:22.491Z,93.63
2018-05-25T03:11:50.029Z,93.87
2018-05-25T03:14:17.561Z,93.72
2018-05-25T03:16:45.116Z,93.55
2018-05-25T03:19:12.704Z,93.52
2018-05-25T03:21:40.212Z,93.58
2018-05-25T03:24:07.713Z,93.70
2018-05-25T03:26:35.294Z,93.68
2018-05-25T03:29:02.787Z,93.71
2018-05-25T03:31:30.330Z,93.80
2018-05-25T03:33:57.832Z,93.71
2018-05-25T03:36:25.341Z,93.69
2018-05-25T03:38:52.882Z,93.64
2018-05-25T03:41:20.387Z,93.66
2018-05-25T03:43:47.917Z,93.56
2018-05-25T03:46:15.436Z,93.64
2018-05-25T03:48:42.949Z,93.50
2018-05-25T03:51:10.528Z,93.35
2018-05-25T03:53:38.025Z,93.21
2018-05-25T03:56:05.555Z,93.44
2018-05-25T03:58:44.749Z,93.42
2018-05-25T04:01:24.347Z,93.16
2018-05-25T04:03:51.866Z,92.84
2018-05-25T04:06:19.359Z,92.42
2018-05-25T04:08:47.726Z,91.46
2018-05-25T04:11:15.259Z,91.20
2018-05-25T04:13:42.821Z,90.74
2018-05-25T04:16:10.393Z,90.54
2018-05-25T04:18:37.894Z,90.11
2018-05-25T04:21:05.419Z,89.80
2018-05-25T04:23:32.918Z,90.09
2018-05-25T04:26:00.482Z,90.30
2018-05-25T04:28:28.011Z,90.32
2018-05-25T04:30:55.532Z,90.43
2018-05-25T04:33:23.070Z,90.26
2018-05-25T04:35:50.575Z,90.09
2018-05-25T04:38:18.083Z,90.31
2018-05-25T04:40:45.618Z,89.41
2018-05-25T04:43:13.175Z,88.80
2018-05-25T04:45:40.656Z,88.52
2018-05-25T04:48:08.240Z,88.16
2018-05-25T04:50:35.745Z,87.67
2018-05-25T04:53:04.475Z,87.25
2018-05-25T04:55:31.997Z,86.60
2018-05-25T04:57:59.517Z,86.40
2018-05-25T05:00:27.076Z,86.39
2018-05-25T05:02:55.110Z,85.74
2018-05-25T05:05:22.630Z,85.73
2018-05-25T05:07:50.209Z,86.01
2018-05-25T05:10:17.713Z,85.53
2018-05-25T05:12:45.262Z,84.71
2018-05-25T05:15:12.810Z,84.13
2018-05-25T05:17:40.394Z,83.61
2018-05-25T05:20:07.923Z,83.36
2018-05-25T05:22:35.434Z,82.59
2018-05-25T05:25:02.969Z,82.92
2018-05-25T05:27:30.476Z,82.99
2018-05-25T05:29:58.034Z,81.77
2018-05-25T05:32:25.559Z,81.63
2018-05-25T05:34:53.077Z,81.70
2018-05-25T05:37:20.626Z,81.37
2018-05-25T05:39:48.180Z,81.86
2018-05-25T05:42:15.718Z,81.03
2018-05-25T05:44:43.255Z,81.11
2018-05-25T05:47:10.814Z,79.06
2018-05-25T05:49:38.325Z,77.26
2018-05-25T05:52:05.869Z,77.38
2018-05-25T05:54:33.433Z,75.62
2018-05-25T05:57:00.957Z,71.24
2018-05-25T05:59:28.463Z,69.12
2018-05-25T06:01:55.997Z,71.79
2018-05-25T06:04:23.560Z,71.59
2018-05-25T06:06:51.129Z,71.65
2018-05-25T06:09:18.642Z,71.44
2018-05-25T06:11:46.163Z,72.31
2018-05-25T06:14:13.703Z,72.92
2018-05-25T06:16:41.234Z,72.15
2018-05-25T06:19:08.826Z,69.04
2018-05-25T06:21:36.391Z,58.83
2018-05-25T06:24:03.920Z,53.15
2018-05-25T06:26:31.509Z,46.84
2018-05-25T06:28:59.656Z,45.08
2018-05-25T06:31:27.217Z,44.41
2018-05-25T06:33:54.792Z,42.05
2018-05-25T06:36:22.306Z,41.95
2018-05-25T06:38:49.834Z,38.85
2018-05-25T06:41:17.364Z,36.70
2018-05-25T06:43:44.897Z,38.09
2018-05-25T06:46:12.405Z,37.69
2018-05-25T06:48:39.982Z,42.04
2018-05-25T06:51:07.501Z,46.13
2018-05-25T06:53:35.008Z,45.60
2018-05-25T06:56:02.546Z,41.40
2018-05-25T06:58:30.079Z,42.33
2018-05-25T07:00:57.604Z,43.92
2018-05-25T07:03:25.177Z,39.49
2018-05-25T07:05:52.661Z,35.97
2018-05-25T07:08:20.212Z,34.24
2018-05-25T07:10:47.705Z,35.14
2018-05-25T07:13:15.212Z,35.13
2018-05-25T07:15:42.850Z,35.98
2018-05-25T07:18:10.338Z,33.59
2018-05-25T07:20:37.928Z,33.09
2018-05-25T07:23:05.417Z,32.65
2018-05-25T07:25:32.930Z,32.22
2018-05-25T07:28:00.450Z,31.97
2018-05-25T07:30:27.959Z,30.09
2018-05-25T07:32:55.521Z,29.53
2018-05-25T07:35:23.034Z,28.61
2018-05-25T07:37:50.575Z,29.37
2018-05-25T07:40:18.193Z,27.67
2018-05-25T07:42:45.712Z,28.45
2018-05-25T07:45:13.268Z,29.43
2018-05-25T07:47:40.886Z,28.60
2018-05-25T07:50:08.385Z,26.55
2018-05-25T07:52:35.909Z,25.66
2018-05-25T07:55:03.406Z,26.77
2018-05-25T07:57:30.923Z,27.52
2018-05-25T07:59:58.410Z,27.06
2018-05-25T08:02:25.931Z,26.06
2018-05-25T08:04:53.457Z,26.35
2018-05-25T08:07:21.002Z,25.29
2018-05-25T08:09:48.669Z,25.43
2018-05-25T08:12:16.193Z,25.96
2018-05-25T08:14:43.993Z,25.19
2018-05-25T08:17:11.951Z,26.54
2018-05-25T08:19:39.454Z,26.21
2018-05-25T08:22:06.994Z,24.95
2018-05-25T08:24:34.506Z,25.66
2018-05-25T08:29:35.954Z,24.49
2018-05-25T08:32:04.372Z,25.35
2018-05-25T08:34:46.842Z,24.44
2018-05-25T08:37:14.334Z,25.94
2018-05-25T08:39:41.855Z,26.26
2018-05-25T08:42:09.387Z,27.65
2018-05-25T08:44:36.895Z,32.70
2018-05-25T08:47:04.459Z,41.04
2018-05-25T08:49:31.976Z,43.89
2018-05-25T08:51:59.492Z,45.67
2018-05-25T08:54:27.077Z,35.27
2018-05-25T08:56:54.594Z,31.23
2018-05-25T08:59:22.126Z,31.68
2018-05-25T09:01:49.644Z,32.65
2018-05-25T09:04:17.151Z,31.82
2018-05-25T09:06:44.740Z,31.72
2018-05-25T09:09:12.339Z,29.90
2018-05-25T09:11:39.927Z,27.93
2018-05-25T09:14:07.483Z,27.80
2018-05-25T09:16:35.033Z,29.36
2018-05-25T09:19:02.634Z,28.16
2018-05-25T09:21:30.150Z,29.46
2018-05-25T09:23:57.688Z,30.83
2018-05-25T09:26:25.193Z,32.18
2018-05-25T09:28:52.729Z,28.49
2018-05-25T09:31:20.266Z,31.94
2018-05-25T09:33:47.802Z,35.60
2018-05-25T09:36:15.379Z,39.20
2018-05-25T09:38:42.921Z,35.93
2018-05-25T09:41:10.452Z,34.08
2018-05-25T09:43:38.725Z,34.16
2018-05-25T09:46:06.253Z,31.97
2018-05-25T09:48:33.880Z,32.47
2018-05-25T09:51:01.389Z,33.93
2018-05-25T09:53:28.873Z,30.27
2018-05-25T09:55:56.482Z,27.88
2018-05-25T09:58:23.994Z,29.08
2018-05-25T10:00:52.380Z,30.30
2018-05-25T10:03:19.901Z,28.28
2018-05-25T10:05:47.500Z,26.19
2018-05-25T10:08:15.100Z,28.12
2018-05-25T10:10:42.709Z,26.32
2018-05-25T10:13:10.210Z,26.26
2018-05-25T10:15:37.767Z,26.95
2018-05-25T10:18:05.376Z,29.13
2018-05-25T10:20:32.873Z,27.12
2018-05-25T10:23:00.431Z,24.29
2018-05-25T10:25:27.919Z,25.86
2018-05-25T10:27:55.472Z,26.42
2018-05-25T10:30:23.078Z,26.10
2018-05-25T10:32:50.611Z,29.33
2018-05-25T10:35:18.139Z,30.53
2018-05-25T10:37:45.636Z,28.59
2018-05-25T10:40:13.176Z,32.39
2018-05-25T10:42:40.713Z,34.67
2018-05-25T10:45:08.235Z,27.93
2018-05-25T10:47:35.753Z,25.45
2018-05-25T10:50:03.397Z,24.79
2018-05-25T10:52:30.926Z,27.15
2018-05-25T10:54:58.468Z,29.35
2018-05-25T10:57:25.985Z,30.24
2018-05-25T10:59:53.582Z,35.35
2018-05-25T11:02:21.146Z,29.67
2018-05-25T11:04:48.783Z,30.51
2018-05-25T11:07:16.405Z,28.91
2018-05-25T11:09:45.194Z,31.57
2018-05-25T11:12:12.827Z,31.20
2018-05-25T11:14:40.427Z,30.79
2018-05-25T11:17:08.077Z,32.39
2018-05-25T11:19:36.672Z,31.64
2018-05-25T11:22:04.429Z,33.77
2018-05-25T11:24:31.976Z,34.71
2018-05-25T11:26:59.612Z,39.18
2018-05-25T11:29:27.255Z,39.83
2018-05-25T11:31:54.870Z,40.15
2018-05-25T11:34:22.454Z,39.23
2018-05-25T11:36:50.029Z,38.28
2018-05-25T11:39:17.536Z,38.56
2018-05-25T11:41:45.129Z,39.19
2018-05-25T11:44:12.669Z,36.91
2018-05-25T11:46:40.162Z,38.20
2018-05-25T11:49:07.725Z,39.39
2018-05-25T11:51:35.282Z,40.72
2018-05-25T11:54:02.781Z,40.89
2018-05-25T11:56:30.374Z,37.43
2018-05-25T11:58:57.873Z,41.03
2018-05-25T12:01:25.418Z,41.18
2018-05-25T12:03:52.957Z,38.64
2018-05-25T12:06:20.513Z,39.63
2018-05-25T12:08:48.124Z,38.32
2018-05-25T12:11:15.606Z,41.08
2018-05-25T12:13:43.194Z,39.55
2018-05-25T12:16:10.693Z,42.05
2018-05-25T12:18:38.838Z,40.09
2018-05-25T12:21:06.367Z,40.61
2018-05-25T12:23:34.542Z,39.86
2018-05-25T12:26:02.101Z,40.42
2018-05-25T12:28:29.600Z,40.60
2018-05-25T12:30:57.128Z,36.15
2018-05-25T12:33:24.666Z,41.89
2018-05-25T12:35:52.471Z,39.11
2018-05-25T12:38:19.999Z,36.56
2018-05-25T12:40:47.524Z,40.29
2018-05-25T12:43:15.046Z,42.62
2018-05-25T12:45:42.561Z,38.47
2018-05-25T12:48:10.091Z,37.62
2018-05-25T12:50:37.623Z,38.35
2018-05-25T12:53:05.256Z,40.04
2018-05-25T12:55:32.777Z,39.30
2018-05-25T12:58:00.349Z,39.61
2018-05-25T13:00:27.844Z,40.31
2018-05-25T13:02:55.373Z,40.57
2018-05-25T13:05:22.900Z,39.23
2018-05-25T13:07:50.422Z,39.20
2018-05-25T13:10:17.963Z,42.56
2018-05-25T13:12:45.536Z,35.80
2018-05-25T13:15:13.101Z,37.96
2018-05-25T13:17:40.623Z,37.93
2018-05-25T13:20:08.129Z,41.75
2018-05-25T13:22:35.667Z,38.69
2018-05-25T13:25:03.233Z,39.25
2018-05-25T13:27:31.135Z,40.27
2018-05-25T13:29:58.746Z,40.61
2018-05-25T13:32:26.277Z,42.06
2018-05-25T13:34:53.802Z,48.10
2018-05-25T13:37:21.351Z,55.80
2018-05-25T13:39:48.851Z,55.80
2018-05-25T13:42:16.428Z,56.72
2018-05-25T13:44:44.051Z,60.49
2018-05-25T13:47:11.589Z,61.76
2018-05-25T13:49:39.121Z,63.13
2018-05-25T13:52:06.666Z,64.19
2018-05-25T13:54:34.201Z,65.39
2018-05-25T13:57:01.760Z,72.91
2018-05-25T13:59:29.323Z,72.68
2018-05-25T14:01:56.898Z,74.33
2018-05-25T14:04:24.415Z,72.45
2018-05-25T14:06:51.955Z,76.05
2018-05-25T14:09:19.464Z,76.48
2018-05-25T14:11:46.988Z,82.45
2018-05-25T14:14:14.541Z,95.20
2018-05-25T14:16:42.135Z,100.00
2018-05-25T14:19:09.702Z,100.00
2018-05-25T14:21:37.306Z,100.00
2018-05-25T14:24:04.862Z,100.00
2018-05-25T14:26:32.431Z,100.00
2018-05-25T14:28:59.944Z,100.00
2018-05-25T14:31:27.533Z,100.00
2018-05-25T14:33:55.141Z,100.00
2018-05-25T14:36:22.659Z,100.00
2018-05-25T14:38:50.355Z,100.00
2018-05-25T14:41:18.031Z,100.00
2018-05-25T14:43:45.581Z,100.00
2018-05-25T14:46:13.103Z,100.00
2018-05-25T14:48:40.671Z,100.00
2018-05-25T14:51:08.301Z,100.00
2018-05-25T14:53:35.865Z,100.00
2018-05-25T14:56:03.453Z,100.00
2018-05-25T14:58:30.984Z,100.00
2018-05-25T15:00:58.546Z,100.00
2018-05-25T15:03:26.102Z,100.00
2018-05-25T15:05:53.641Z,100.00
2018-05-25T15:08:21.201Z,100.00
2018-05-25T15:10:48.798Z,100.00
2018-05-25T15:13:16.349Z,100.00
2018-05-25T15:15:43.991Z,100.00
2018-05-25T15:18:11.514Z,100.00
2018-05-25T15:20:39.117Z,100.00
2018-05-25T15:23:06.645Z,100.00
2018-05-25T15:25:34.211Z,100.00
2018-05-25T15:28:01.837Z,100.00
2018-05-25T15:30:29.382Z,100.00
2018-05-25T15:32:57.575Z,100.00
2018-05-25T15:35:25.157Z,100.00
2018-05-25T15:37:52.727Z,100.00
2018-05-25T15:40:20.853Z,100.00
2018-05-25T15:42:48.387Z,100.00
2018-05-25T15:45:15.996Z,100.00
2018-05-25T15:47:44.353Z,100.00
2018-05-25T15:50:11.915Z,100.00
2018-05-25T15:52:39.471Z,100.00
2018-05-25T15:55:07.000Z,100.00
2018-05-25T15:57:34.568Z,100.00
2018-05-25T16:00:02.083Z,100.00
2018-05-25T16:02:29.668Z,100.00
2018-05-25T16:04:57.281Z,100.00
2018-05-25T16:07:24.808Z,100.00
2018-05-25T16:09:52.387Z,100.00
2018-05-25T16:12:19.920Z,100.00
2018-05-25T16:14:47.463Z,100.00
2018-05-25T16:17:15.040Z,100.00
2018-05-25T16:19:42.638Z,100.00
2018-05-25T16:22:10.190Z,100.00
2018-05-25T16:24:37.723Z,100.00
2018-05-25T16:27:05.267Z,100.00
2018-05-25T16:29:32.834Z,100.00
2018-05-25T16:32:00.403Z,100.00
2018-05-25T16:34:27.958Z,100.00
2018-05-25T16:36:55.598Z,100.00
2018-05-25T16:39:23.147Z,100.00
2018-05-25T16:41:50.710Z,100.00
2018-05-25T16:44:18.246Z,100.00
2018-05-25T16:46:45.829Z,100.00
2018-05-25T16:49:13.398Z,100.00
2018-05-25T16:51:40.998Z,100.00
2018-05-25T16:54:08.537Z,100.00
2018-05-25T16:56:36.103Z,100.00
2018-05-25T16:59:03.686Z,100.00
2018-05-25T17:01:31.309Z,100.00
2018-05-25T17:03:58.911Z,100.00
2018-05-25T17:06:30.091Z,100.00
2018-05-25T17:08:57.813Z,100.00
2018-05-25T17:11:25.423Z,100.00
2018-05-25T17:13:52.993Z,100.00
2018-05-25T17:16:20.525Z,100.00
2018-05-25T17:18:48.129Z,100.00
2018-05-25T17:21:15.651Z,100.00
2018-05-25T17:23:43.247Z,100.00
2018-05-25T17:26:12.905Z,100.00
2018-05-25T17:28:40.494Z,100.00
2018-05-25T17:31:08.072Z,100.00
2018-05-25T17:33:35.658Z,100.00
2018-05-25T17:36:03.290Z,100.00
2018-05-25T17:38:30.863Z,100.00
2018-05-25T17:40:58.495Z,100.00
2018-05-25T17:43:26.135Z,100.00
2018-05-25T17:45:53.746Z,100.00
2018-05-25T17:48:22.268Z,100.00
2018-05-25T17:50:49.814Z,100.00
2018-05-25T17:53:17.459Z,100.00
2018-05-25T17:55:45.016Z,100.00
2018-05-25T17:58:12.591Z,100.00
2018-05-25T18:00:40.174Z,100.00
2018-05-25T18:03:09.735Z,100.00
2018-05-25T18:05:37.314Z,100.00
2018-05-25T18:08:04.914Z,100.00
2018-05-25T18:10:32.462Z,100.00
2018-05-25T18:13:00.326Z,100.00
2018-05-25T18:15:27.915Z,100.00
2018-05-25T18:17:55.542Z,100.00
2018-05-25T18:20:23.208Z,100.00
2018-05-25T18:22:50.795Z,100.00
2018-05-25T18:25:18.350Z,100.00
2018-05-25T18:27:45.942Z,100.00
2018-05-25T18:30:13.463Z,100.00
2018-05-25T18:32:41.008Z,100.00
2018-05-25T18:37:43.376Z,100.00
2018-05-25T18:40:10.920Z,100.00
2018-05-25T18:42:38.484Z,100.00
2018-05-25T18:45:06.105Z,100.00
2018-05-25T18:47:34.380Z,100.00
2018-05-25T18:50:01.954Z,100.00
2018-05-25T18:52:29.523Z,100.00
2018-05-25T18:54:57.105Z,100.00
2018-05-25T18:57:24.719Z,100.00
2018-05-25T18:59:52.257Z,100.00
2018-05-25T19:02:19.812Z,100.00
2018-05-25T19:04:47.416Z,100.00
2018-05-25T19:07:14.935Z,100.00
2018-05-25T19:09:42.520Z,100.00
2018-05-25T19:12:10.052Z,100.00
2018-05-25T19:14:37.845Z,100.00
2018-05-25T19:17:05.468Z,100.00
2018-05-25T19:19:33.080Z,100.00
2018-05-25T19:22:00.680Z,100.00
2018-05-25T19:24:28.657Z,100.00
2018-05-25T19:26:56.387Z,100.00
2018-05-25T19:29:24.025Z,100.00
2018-05-25T19:31:51.646Z,100.00
2018-05-25T19:34:19.378Z,100.00
2018-05-25T19:36:46.942Z,100.00
2018-05-25T19:39:14.465Z,100.00
2018-05-25T19:41:42.020Z,100.00
2018-05-25T19:44:09.681Z,100.00
2018-05-25T19:46:37.234Z,100.00
2018-05-25T19:49:04.797Z,100.00
2018-05-25T19:51:32.326Z,100.00
2018-05-25T19:53:59.885Z,100.00
2018-05-25T19:56:27.429Z,100.00
2018-05-25T19:58:54.987Z,100.00
2018-05-25T20:01:22.510Z,100.00
2018-05-25T20:03:50.042Z,100.00
2018-05-25T20:06:17.600Z,100.00
2018-05-25T20:08:45.130Z,100.00
2018-05-25T20:11:12.697Z,100.00
2018-05-25T20:13:40.294Z,100.00
2018-05-25T20:16:07.854Z,100.00
2018-05-25T20:18:35.403Z,100.00
2018-05-25T20:21:03.030Z,100.00
2018-05-25T20:23:30.601Z,100.00
2018-05-25T20:25:58.209Z,100.00
2018-05-25T20:28:25.745Z,100.00
2018-05-25T20:30:53.334Z,100.00
2018-05-25T20:33:20.926Z,100.00
2018-05-25T20:35:48.537Z,100.00
2018-05-25T20:38:16.081Z,100.00
2018-05-25T20:40:43.681Z,100.00
2018-05-25T20:43:11.362Z,100.00
2018-05-25T20:45:38.906Z,100.00
2018-05-25T20:48:06.455Z,100.00
2018-05-25T20:50:33.999Z,100.00
2018-05-25T20:53:01.529Z,100.00
2018-05-25T20:55:29.070Z,100.00
2018-05-25T20:57:56.607Z,100.00
2018-05-25T21:00:24.181Z,100.00
2018-05-25T21:02:51.701Z,100.00
2018-05-25T21:05:19.225Z,100.00
2018-05-25T21:07:46.807Z,100.00
2018-05-25T21:10:14.387Z,100.00
2018-05-25T21:12:41.967Z,100.00
2018-05-25T21:15:09.565Z,100.00
2018-05-25T21:17:37.094Z,100.00
2018-05-25T21:20:04.679Z,100.00
2018-05-25T21:22:32.230Z,100.00
2018-05-25T21:24:59.785Z,100.00
2018-05-25T21:27:27.318Z,100.00
2018-05-25T21:29:54.908Z,100.00
2018-05-25T21:32:22.487Z,100.00
2018-05-25T21:34:50.026Z,100.00
2018-05-25T21:37:17.653Z,100.00
2018-05-25T21:39:45.180Z,100.00
2018-05-25T21:42:12.707Z,100.00
2018-05-25T21:44:40.257Z,100.00
2018-05-25T21:47:07.829Z,100.00
2018-05-25T21:49:35.431Z,100.00
2018-05-25T21:52:02.993Z,100.00
2018-05-25T21:54:30.533Z,100.00
2018-05-25T21:56:58.102Z,100.00
2018-05-25T21:59:25.628Z,100.00
2018-05-25T22:01:53.234Z,100.00
2018-05-25T22:04:20.788Z,100.00
2018-05-25T22:06:48.321Z,100.00
2018-05-25T22:09:15.893Z,100.00
2018-05-25T22:11:43.538Z,100.00
2018-05-25T22:14:11.088Z,100.00
2018-05-25T22:16:38.641Z,100.00
2018-05-25T22:19:06.235Z,100.00
2018-05-25T22:21:33.774Z,100.00
2018-05-25T22:24:01.368Z,100.00
2018-05-25T22:26:28.936Z,100.00
2018-05-25T22:28:56.499Z,100.00
2018-05-25T22:31:24.026Z,100.00
2018-05-25T22:33:51.583Z,100.00
2018-05-25T22:36:19.131Z,100.00
2018-05-25T22:38:46.731Z,100.00
2018-05-25T22:41:14.262Z,100.00
2018-05-25T22:43:53.554Z,100.00
2018-05-25T22:46:32.898Z,100.00
2018-05-25T22:49:12.272Z,100.00
2018-05-25T22:51:51.682Z,100.00
2018-05-25T22:54:34.525Z,100.00
2018-05-25T22:57:02.056Z,100.00
2018-05-25T22:59:29.601Z,100.00
2018-05-25T23:01:57.196Z,100.00
2018-05-25T23:04:24.729Z,100.00
2018-05-25T23:06:52.298Z,100.00
2018-05-25T23:09:19.901Z,100.00
2018-05-25T23:11:47.456Z,100.00
2018-05-25T23:14:15.013Z,100.00
2018-05-25T23:16:42.579Z,100.00
2018-05-25T23:19:10.166Z,100.00
2018-05-25T23:21:37.724Z,100.00
2018-05-25T23:24:05.307Z,100.00
2018-05-25T23:26:32.843Z,100.00
2018-05-25T23:29:00.394Z,100.00
2018-05-25T23:31:27.924Z,100.00
2018-05-25T23:33:55.535Z,100.00
2018-05-25T23:36:23.062Z,100.00
2018-05-25T23:38:50.613Z,100.00
2018-05-25T23:41:18.218Z,100.00
2018-05-25T23:43:45.859Z,100.00
2018-05-25T23:46:13.468Z,100.00
2018-05-25T23:48:41.006Z,100.00
2018-05-25T23:51:08.540Z,100.00
2018-05-25T23:53:36.090Z,100.00
2018-05-25T23:56:03.630Z,100.00
2018-05-25T23:58:31.199Z,100.00
